createdAt,value
2019-02-04T00:01:53.369Z,89.71
2019-02-04T00:04:23.901Z,89.58
2019-02-04T00:06:54.371Z,89.96
2019-02-04T00:09:24.809Z,89.68
2019-02-04T00:11:56.322Z,89.86
2019-02-04T00:14:26.784Z,89.90
2019-02-04T00:16:57.224Z,90.18
2019-02-04T00:19:27.695Z,89.86
2019-02-04T00:21:58.154Z,90.13
2019-02-04T00:24:29.348Z,90.10
2019-02-04T00:26:59.783Z,90.19
2019-02-04T00:29:30.550Z,89.71
2019-02-04T00:32:01.031Z,90.05
2019-02-04T00:34:31.784Z,90.23
2019-02-04T00:37:02.258Z,90.07
2019-02-04T00:39:33.063Z,90.06
2019-02-04T00:42:03.893Z,90.29
2019-02-04T00:44:34.359Z,90.46
2019-02-04T00:47:05.093Z,90.47
2019-02-04T00:49:35.897Z,90.35
2019-02-04T00:52:06.437Z,90.25
2019-02-04T00:54:36.875Z,90.40
2019-02-04T00:57:07.701Z,90.25
2019-02-04T00:59:38.148Z,89.98
2019-02-04T01:02:08.725Z,90.18
2019-02-04T01:04:39.451Z,89.84
2019-02-04T01:07:10.072Z,89.88
2019-02-04T01:09:40.544Z,90.06
2019-02-04T01:12:10.985Z,90.07
2019-02-04T01:14:41.513Z,89.58
2019-02-04T01:17:12.335Z,89.53
2019-02-04T01:19:43.103Z,89.89
2019-02-04T01:22:13.575Z,89.99
2019-02-04T01:24:48.095Z,89.68
2019-02-04T01:27:17.682Z,89.84
2019-02-04T01:29:48.590Z,90.25
2019-02-04T01:32:19.026Z,90.29
2019-02-04T01:34:49.807Z,89.94
2019-02-04T01:37:20.248Z,89.89
2019-02-04T01:39:50.741Z,89.64
2019-02-04T01:42:21.675Z,89.54
2019-02-04T01:44:52.115Z,89.43
2019-02-04T01:47:23.562Z,89.34
2019-02-04T01:49:54.007Z,89.25
2019-02-04T01:52:24.498Z,88.96
2019-02-04T01:54:55.317Z,89.05
2019-02-04T01:57:25.763Z,89.04
2019-02-04T01:59:56.247Z,89.47
2019-02-04T02:02:26.693Z,89.98
2019-02-04T02:04:57.178Z,90.02
2019-02-04T02:07:27.623Z,90.40
2019-02-04T02:09:58.079Z,90.54
2019-02-04T02:12:28.905Z,90.66
2019-02-04T02:15:00.288Z,90.75
2019-02-04T02:17:30.790Z,90.60
2019-02-04T02:20:01.234Z,90.82
2019-02-04T02:22:32.443Z,90.92
2019-02-04T02:25:02.912Z,91.32
2019-02-04T02:27:33.625Z,91.52
2019-02-04T02:30:05.471Z,91.38
2019-02-04T02:32:35.959Z,91.05
2019-02-04T02:35:07.608Z,91.36
2019-02-04T02:37:38.205Z,90.78
2019-02-04T02:40:12.798Z,91.02
2019-02-04T02:42:43.288Z,91.22
2019-02-04T02:45:13.728Z,91.24
2019-02-04T02:47:44.171Z,90.75
2019-02-04T02:50:14.970Z,91.17
2019-02-04T02:52:45.565Z,91.49
2019-02-04T02:55:16.621Z,91.27
2019-02-04T02:57:47.265Z,90.95
2019-02-04T03:00:20.750Z,90.62
2019-02-04T03:02:52.012Z,90.66
2019-02-04T03:05:22.533Z,90.97
2019-02-04T03:07:53.682Z,90.54
2019-02-04T03:10:28.820Z,90.56
2019-02-04T03:12:59.306Z,90.05
2019-02-04T03:15:31.415Z,90.17
2019-02-04T03:18:01.854Z,90.11
2019-02-04T03:20:33.525Z,90.27
2019-02-04T03:23:04.558Z,89.69
2019-02-04T03:25:35.048Z,91.64
2019-02-04T03:28:05.591Z,92.54
2019-02-04T03:30:36.074Z,91.83
2019-02-04T03:33:06.544Z,91.38
2019-02-04T03:35:36.982Z,91.05
2019-02-04T03:38:07.482Z,90.82
2019-02-04T03:40:37.933Z,91.38
2019-02-04T03:43:08.382Z,92.10
2019-02-04T03:45:39.016Z,92.27
2019-02-04T03:48:09.804Z,91.95
2019-02-04T03:50:40.240Z,91.40
2019-02-04T03:53:10.688Z,91.56
2019-02-04T03:55:41.180Z,91.49
2019-02-04T03:58:11.632Z,90.79
2019-02-04T04:00:42.088Z,90.83
2019-02-04T04:03:13.707Z,90.87
2019-02-04T04:05:44.155Z,90.77
2019-02-04T04:08:14.644Z,90.94
2019-02-04T04:10:45.092Z,91.16
2019-02-04T04:13:15.539Z,90.92
2019-02-04T04:15:46.442Z,90.72
2019-02-04T04:18:16.883Z,91.05
2019-02-04T04:20:47.333Z,91.05
2019-02-04T04:23:17.821Z,91.36
2019-02-04T04:25:48.272Z,91.42
2019-02-04T04:28:18.768Z,91.86
2019-02-04T04:30:49.276Z,91.57
2019-02-04T04:33:19.725Z,92.14
2019-02-04T04:35:50.495Z,92.49
2019-02-04T04:38:20.985Z,92.23
2019-02-04T04:40:51.436Z,92.27
2019-02-04T04:43:21.882Z,92.57
2019-02-04T04:45:52.389Z,93.39
2019-02-04T04:48:26.768Z,93.04
2019-02-04T04:50:54.984Z,93.19
2019-02-04T04:53:25.479Z,92.93
2019-02-04T04:55:55.927Z,92.91
2019-02-04T04:58:26.392Z,92.74
2019-02-04T05:00:56.898Z,92.92
2019-02-04T05:03:27.350Z,93.03
2019-02-04T05:05:58.111Z,92.87
2019-02-04T05:08:28.995Z,93.22
2019-02-04T05:10:59.448Z,93.65
2019-02-04T05:13:30.052Z,93.84
2019-02-04T05:16:00.829Z,93.86
2019-02-04T05:18:38.121Z,93.60
2019-02-04T05:21:03.907Z,93.86
2019-02-04T05:23:34.414Z,94.25
2019-02-04T05:26:04.964Z,94.36
2019-02-04T05:28:35.420Z,93.85
2019-02-04T05:31:06.072Z,93.93
2019-02-04T05:33:37.277Z,93.58
2019-02-04T05:36:07.723Z,93.87
2019-02-04T05:38:38.220Z,93.87
2019-02-04T05:41:08.665Z,93.99
2019-02-04T05:43:39.402Z,93.71
2019-02-04T05:46:09.898Z,93.59
2019-02-04T05:48:49.109Z,93.74
2019-02-04T05:51:13.218Z,93.06
2019-02-04T05:53:43.778Z,92.97
2019-02-04T05:56:14.228Z,93.30
2019-02-04T05:58:44.749Z,92.52
2019-02-04T06:01:15.243Z,92.90
2019-02-04T06:03:45.688Z,92.98
2019-02-04T06:06:16.141Z,92.85
2019-02-04T06:08:46.641Z,93.31
2019-02-04T06:11:17.180Z,93.58
2019-02-04T06:13:47.970Z,93.41
2019-02-04T06:16:18.888Z,93.27
2019-02-04T06:19:00.123Z,93.50
2019-02-04T06:21:21.487Z,93.35
2019-02-04T06:23:52.009Z,93.23
2019-02-04T06:26:23.427Z,93.53
2019-02-04T06:28:53.904Z,94.18
2019-02-04T06:31:24.396Z,93.50
2019-02-04T06:33:54.845Z,93.63
2019-02-04T06:36:25.762Z,93.41
2019-02-04T06:38:57.010Z,93.49
2019-02-04T06:41:27.524Z,93.65
2019-02-04T06:43:58.041Z,93.56
2019-02-04T06:46:29.271Z,93.47
2019-02-04T06:48:59.751Z,93.36
2019-02-04T06:51:30.422Z,93.08
2019-02-04T06:54:01.212Z,93.15
2019-02-04T06:56:31.963Z,93.16
2019-02-04T06:59:02.435Z,93.08
2019-02-04T07:01:32.913Z,93.21
2019-02-04T07:04:03.365Z,93.22
2019-02-04T07:06:35.115Z,93.18
2019-02-04T07:09:09.829Z,92.94
2019-02-04T07:11:40.347Z,92.90
2019-02-04T07:14:10.789Z,92.95
2019-02-04T07:16:41.307Z,92.96
2019-02-04T07:19:23.486Z,92.85
2019-02-04T07:21:43.894Z,92.85
2019-02-04T07:24:14.451Z,92.65
2019-02-04T07:26:44.908Z,92.64
2019-02-04T07:29:15.348Z,92.51
2019-02-04T07:31:46.120Z,92.83
2019-02-04T07:34:16.577Z,92.77
2019-02-04T07:36:47.093Z,92.43
2019-02-04T07:39:17.583Z,92.50
2019-02-04T07:41:48.135Z,92.26
2019-02-04T07:44:18.647Z,92.14
2019-02-04T07:46:49.529Z,91.77
2019-02-04T07:49:19.951Z,91.34
2019-02-04T07:51:50.577Z,91.10
2019-02-04T07:54:21.671Z,91.35
2019-02-04T07:56:52.110Z,91.02
2019-02-04T07:59:22.579Z,91.31
2019-02-04T08:01:53.370Z,91.17
2019-02-04T08:04:23.986Z,90.74
2019-02-04T08:06:54.433Z,90.64
2019-02-04T08:09:24.939Z,91.14
2019-02-04T08:11:55.755Z,90.43
2019-02-04T08:14:26.490Z,90.23
2019-02-04T08:16:57.421Z,90.53
2019-02-04T08:19:27.903Z,90.48
2019-02-04T08:21:58.750Z,90.40
2019-02-04T08:24:29.744Z,90.16
2019-02-04T08:27:00.159Z,89.29
2019-02-04T08:29:30.963Z,88.98
2019-02-04T08:32:01.479Z,88.78
2019-02-04T08:34:31.959Z,88.80
2019-02-04T08:37:03.467Z,88.95
2019-02-04T08:39:33.972Z,88.24
2019-02-04T08:42:04.514Z,88.20
2019-02-04T08:44:34.963Z,87.82
2019-02-04T08:47:05.490Z,87.88
2019-02-04T08:49:35.937Z,87.75
2019-02-04T08:52:06.766Z,87.23
2019-02-04T08:54:37.255Z,87.52
2019-02-04T08:57:07.700Z,86.79
2019-02-04T08:59:38.507Z,86.51
2019-02-04T09:02:09.409Z,86.38
2019-02-04T09:04:39.877Z,86.61
2019-02-04T09:07:10.595Z,86.07
2019-02-04T09:09:41.078Z,85.68
2019-02-04T09:12:11.693Z,85.19
2019-02-04T09:14:42.139Z,84.63
2019-02-04T09:17:12.653Z,84.48
2019-02-04T09:19:43.090Z,84.18
2019-02-04T09:22:13.534Z,84.24
2019-02-04T09:24:44.023Z,84.38
2019-02-04T09:27:14.462Z,83.93
2019-02-04T09:29:44.910Z,84.25
2019-02-04T09:32:15.399Z,82.24
2019-02-04T09:34:46.586Z,81.97
2019-02-04T09:37:17.030Z,82.86
2019-02-04T09:39:47.516Z,81.38
2019-02-04T09:42:18.337Z,81.21
2019-02-04T09:44:49.120Z,80.46
2019-02-04T09:47:19.910Z,79.33
2019-02-04T09:49:51.253Z,78.60
2019-02-04T09:52:21.699Z,79.75
2019-02-04T09:54:52.192Z,79.85
2019-02-04T09:57:22.635Z,79.24
2019-02-04T09:59:53.168Z,79.06
2019-02-04T10:02:23.949Z,79.65
2019-02-04T10:04:54.398Z,79.79
2019-02-04T10:07:24.855Z,79.82
2019-02-04T10:09:55.326Z,80.05
2019-02-04T10:12:25.770Z,80.18
2019-02-04T10:14:57.031Z,79.84
2019-02-04T10:17:27.511Z,79.33
2019-02-04T10:19:57.954Z,79.93
2019-02-04T10:22:28.835Z,79.61
2019-02-04T10:24:59.323Z,80.07
2019-02-04T10:27:30.108Z,79.48
2019-02-04T10:30:00.920Z,80.26
2019-02-04T10:32:31.988Z,79.77
2019-02-04T10:35:02.709Z,79.14
2019-02-04T10:37:33.296Z,79.50
2019-02-04T10:40:04.057Z,79.24
2019-02-04T10:42:34.529Z,79.28
2019-02-04T10:45:05.629Z,79.21
2019-02-04T10:47:36.471Z,79.00
2019-02-04T10:50:09.991Z,79.64
2019-02-04T10:52:40.568Z,78.96
2019-02-04T10:55:12.175Z,78.80
2019-02-04T10:57:42.717Z,79.03
2019-02-04T11:00:15.814Z,79.14
2019-02-04T11:02:46.658Z,78.69
2019-02-04T11:05:20.363Z,78.69
2019-02-04T11:07:50.991Z,78.10
2019-02-04T11:10:23.568Z,78.48
2019-02-04T11:12:54.453Z,78.94
2019-02-04T11:15:25.827Z,78.70
2019-02-04T11:17:56.537Z,78.32
2019-02-04T11:20:28.362Z,78.20
2019-02-04T11:22:59.196Z,78.49
2019-02-04T11:25:29.600Z,77.65
2019-02-04T11:28:00.127Z,77.39
2019-02-04T11:30:51.335Z,77.65
2019-02-04T11:33:22.043Z,76.91
2019-02-04T11:35:52.985Z,78.09
2019-02-04T11:38:23.506Z,77.39
2019-02-04T11:40:54.433Z,77.10
2019-02-04T11:43:25.084Z,76.86
2019-02-04T11:45:55.741Z,77.60
2019-02-04T11:48:26.322Z,76.84
2019-02-04T11:50:56.791Z,76.50
2019-02-04T11:53:33.027Z,77.03
2019-02-04T11:55:59.427Z,76.95
2019-02-04T11:58:30.146Z,76.72
2019-02-04T12:01:00.668Z,76.37
2019-02-04T12:03:31.117Z,76.55
2019-02-04T12:06:01.567Z,75.96
2019-02-04T12:08:33.042Z,75.98
2019-02-04T12:11:13.274Z,74.36
2019-02-04T12:13:44.771Z,75.29
2019-02-04T12:16:15.242Z,74.95
2019-02-04T12:18:46.370Z,74.50
2019-02-04T12:21:21.459Z,75.07
2019-02-04T12:23:49.886Z,75.74
2019-02-04T12:26:20.365Z,73.84
2019-02-04T12:28:50.851Z,74.68
2019-02-04T12:31:21.771Z,74.80
2019-02-04T12:33:52.379Z,74.77
2019-02-04T12:36:23.183Z,74.77
2019-02-04T12:38:53.625Z,74.70
2019-02-04T12:41:24.067Z,75.30
2019-02-04T12:43:54.711Z,75.15
2019-02-04T12:46:25.154Z,74.75
2019-02-04T12:48:55.939Z,74.55
2019-02-04T12:51:33.738Z,75.40
2019-02-04T12:53:59.051Z,73.66
2019-02-04T12:56:29.505Z,72.78
2019-02-04T12:59:00.356Z,72.86
2019-02-04T13:01:30.810Z,73.59
2019-02-04T13:04:01.255Z,73.75
2019-02-04T13:06:32.679Z,73.43
2019-02-04T13:09:03.312Z,72.10
2019-02-04T13:11:34.514Z,73.00
2019-02-04T13:14:05.693Z,72.98
2019-02-04T13:16:36.474Z,70.67
2019-02-04T13:19:06.919Z,71.41
2019-02-04T13:21:45.206Z,71.62
2019-02-04T13:24:09.929Z,70.40
2019-02-04T13:26:40.381Z,71.95
2019-02-04T13:29:10.886Z,71.17
2019-02-04T13:31:41.336Z,71.23
2019-02-04T13:34:11.877Z,70.58
2019-02-04T13:36:42.366Z,71.09
2019-02-04T13:39:12.815Z,68.04
2019-02-04T13:41:43.258Z,69.85
2019-02-04T13:44:13.749Z,70.22
2019-02-04T13:46:44.192Z,68.86
2019-02-04T13:49:14.628Z,69.65
2019-02-04T13:51:56.850Z,69.66
2019-02-04T13:54:17.659Z,69.03
2019-02-04T13:56:48.096Z,69.13
2019-02-04T13:59:18.576Z,68.89
2019-02-04T14:01:49.385Z,68.98
2019-02-04T14:04:19.829Z,68.88
2019-02-04T14:06:50.622Z,68.75
2019-02-04T14:09:21.450Z,68.88
2019-02-04T14:11:51.899Z,69.88
2019-02-04T14:14:22.363Z,68.50
2019-02-04T14:16:53.040Z,67.62
2019-02-04T14:19:23.527Z,68.73
2019-02-04T14:21:53.964Z,68.22
2019-02-04T14:24:24.403Z,68.53
2019-02-04T14:26:55.171Z,68.16
2019-02-04T14:29:26.004Z,69.02
2019-02-04T14:31:56.867Z,69.52
2019-02-04T14:34:27.301Z,67.96
2019-02-04T14:36:57.746Z,68.46
2019-02-04T14:39:29.213Z,66.98
2019-02-04T14:42:00.716Z,68.65
2019-02-04T14:44:42.755Z,68.75
2019-02-04T14:47:36.837Z,67.47
2019-02-04T14:50:27.455Z,69.70
2019-02-04T14:53:50.821Z,68.07
2019-02-04T14:56:58.002Z,67.78
2019-02-04T14:59:49.952Z,68.41
2019-02-04T15:02:50.478Z,67.94
2019-02-04T15:06:06.602Z,68.40
2019-02-04T15:09:27.274Z,68.71
2019-02-04T15:12:39.965Z,68.11
2019-02-04T15:15:25.031Z,66.50
2019-02-04T15:18:16.079Z,69.00
2019-02-04T15:21:39.120Z,69.28
2019-02-04T15:24:17.255Z,67.54
2019-02-04T15:27:13.474Z,68.09
2019-02-04T15:30:14.353Z,66.29
2019-02-04T15:33:22.852Z,66.76
2019-02-04T15:36:17.823Z,67.36
2019-02-04T15:39:19.173Z,67.77
2019-02-04T15:42:32.286Z,68.49
2019-02-04T15:45:29.625Z,68.71
2019-02-04T15:48:20.160Z,66.73
2019-02-04T15:51:08.676Z,67.91
2019-02-04T15:53:39.119Z,67.78
2019-02-04T15:56:10.227Z,68.17
2019-02-04T15:58:40.684Z,69.17
2019-02-04T16:01:11.123Z,68.84
2019-02-04T16:03:41.606Z,69.33
2019-02-04T16:06:12.063Z,68.87
2019-02-04T16:08:42.590Z,68.40
2019-02-04T16:11:13.438Z,70.09
2019-02-04T16:13:43.998Z,68.73
2019-02-04T16:16:14.434Z,68.68
2019-02-04T16:18:44.895Z,68.65
2019-02-04T16:21:15.329Z,69.27
2019-02-04T16:23:46.085Z,68.67
2019-02-04T16:26:16.521Z,67.73
2019-02-04T16:28:46.992Z,68.54
2019-02-04T16:31:17.452Z,68.97
2019-02-04T16:33:47.909Z,67.84
2019-02-04T16:36:18.346Z,67.69
2019-02-04T16:38:49.104Z,68.09
2019-02-04T16:41:20.272Z,69.61
2019-02-04T16:43:50.722Z,68.65
2019-02-04T16:46:21.530Z,68.82
2019-02-04T16:48:51.991Z,68.67
2019-02-04T16:51:22.613Z,68.88
2019-02-04T16:53:53.109Z,68.06
2019-02-04T16:56:23.546Z,68.72
2019-02-04T16:58:53.997Z,68.53
2019-02-04T17:01:24.834Z,69.24
2019-02-04T17:03:55.979Z,68.54
2019-02-04T17:06:26.432Z,68.27
2019-02-04T17:08:56.929Z,68.32
2019-02-04T17:11:28.562Z,68.85
2019-02-04T17:13:58.989Z,68.76
2019-02-04T17:16:29.866Z,69.13
2019-02-04T17:19:00.345Z,69.05
2019-02-04T17:21:30.873Z,68.94
2019-02-04T17:24:01.664Z,67.92
2019-02-04T17:26:32.096Z,68.53
2019-02-04T17:29:03.532Z,68.58
2019-02-04T17:31:35.499Z,68.45
2019-02-04T17:34:06.113Z,67.91
2019-02-04T17:36:37.335Z,68.21
2019-02-04T17:39:09.353Z,67.72
2019-02-04T17:41:39.901Z,67.59
2019-02-04T17:44:10.547Z,67.61
2019-02-04T17:46:41.782Z,69.40
2019-02-04T17:49:12.217Z,68.18
2019-02-04T17:51:43.048Z,68.11
2019-02-04T17:54:13.531Z,68.79
2019-02-04T17:56:44.361Z,67.66
2019-02-04T17:59:14.838Z,68.37
2019-02-04T18:01:45.611Z,68.64
2019-02-04T18:04:16.375Z,69.19
2019-02-04T18:06:46.814Z,67.69
2019-02-04T18:09:17.301Z,68.82
2019-02-04T18:11:47.812Z,68.34
2019-02-04T18:14:18.270Z,68.81
2019-02-04T18:16:48.765Z,68.09
2019-02-04T18:19:19.214Z,67.23
2019-02-04T18:21:49.641Z,68.20
2019-02-04T18:24:20.706Z,68.02
2019-02-04T18:26:51.262Z,67.13
2019-02-04T18:29:21.692Z,67.76
2019-02-04T18:31:52.475Z,66.68
2019-02-04T18:34:22.907Z,67.65
2019-02-04T18:36:53.749Z,66.68
2019-02-04T18:39:24.233Z,66.67
2019-02-04T18:41:55.675Z,67.50
2019-02-04T18:44:26.204Z,67.76
2019-02-04T18:46:56.990Z,67.50
2019-02-04T18:49:27.439Z,67.69
2019-02-04T18:51:57.891Z,67.03
2019-02-04T18:54:28.681Z,68.34
2019-02-04T18:56:59.140Z,67.41
2019-02-04T18:59:29.572Z,67.91
2019-02-04T19:02:00.324Z,67.82
2019-02-04T19:04:32.784Z,68.29
2019-02-04T19:07:03.396Z,68.51
2019-02-04T19:09:34.846Z,69.35
2019-02-04T19:12:05.425Z,68.94
2019-02-04T19:14:37.418Z,69.42
2019-02-04T19:17:07.905Z,69.18
2019-02-04T19:19:39.037Z,69.98
2019-02-04T19:22:10.718Z,69.71
2019-02-04T19:24:42.184Z,70.26
2019-02-04T19:27:14.238Z,70.43
2019-02-04T19:29:45.047Z,69.33
2019-02-04T19:32:16.550Z,69.32
2019-02-04T19:34:46.994Z,70.33
2019-02-04T19:37:19.257Z,69.57
2019-02-04T19:39:49.926Z,70.60
2019-02-04T19:42:20.901Z,71.03
2019-02-04T19:44:54.177Z,70.60
2019-02-04T19:47:24.983Z,70.38
2019-02-04T19:49:55.793Z,70.87
2019-02-04T19:52:26.891Z,70.34
2019-02-04T19:54:57.326Z,70.44
2019-02-04T19:57:28.033Z,69.59
2019-02-04T19:59:58.542Z,70.41
2019-02-04T20:02:29.343Z,69.49
2019-02-04T20:05:00.374Z,69.48
2019-02-04T20:07:32.657Z,69.11
2019-02-04T20:10:06.415Z,69.71
2019-02-04T20:12:37.198Z,69.59
2019-02-04T20:15:10.539Z,70.13
2019-02-04T20:17:41.307Z,69.47
2019-02-04T20:20:11.972Z,69.42
2019-02-04T20:22:44.139Z,69.77
2019-02-04T20:25:17.391Z,68.95
2019-02-04T20:27:47.859Z,69.02
2019-02-04T20:30:21.366Z,69.38
2019-02-04T20:32:51.899Z,69.07
2019-02-04T20:35:22.326Z,68.91
2019-02-04T20:37:53.165Z,69.08
2019-02-04T20:40:23.655Z,69.65
2019-02-04T20:42:54.090Z,69.35
2019-02-04T20:45:25.345Z,69.41
2019-02-04T20:47:55.829Z,68.89
2019-02-04T20:50:28.790Z,70.32
2019-02-04T20:52:59.454Z,69.16
2019-02-04T20:55:30.200Z,69.90
2019-02-04T20:58:01.302Z,70.08
2019-02-04T21:00:31.886Z,69.44
2019-02-04T21:03:02.469Z,68.75
2019-02-04T21:05:32.968Z,70.20
2019-02-04T21:08:03.446Z,69.92
2019-02-04T21:10:33.911Z,68.69
2019-02-04T21:13:04.810Z,68.51
2019-02-04T21:15:35.580Z,69.51
2019-02-04T21:18:06.898Z,68.27
2019-02-04T21:20:37.444Z,69.24
2019-02-04T21:23:07.891Z,68.24
2019-02-04T21:25:38.546Z,69.05
2019-02-04T21:28:09.044Z,69.12
2019-02-04T21:30:41.804Z,68.26
2019-02-04T21:33:12.274Z,68.62
2019-02-04T21:35:43.525Z,68.64
2019-02-04T21:38:14.422Z,69.16
2019-02-04T21:40:44.933Z,68.10
2019-02-04T21:43:15.527Z,68.00
2019-02-04T21:45:45.951Z,66.91
2019-02-04T21:48:16.890Z,67.49
2019-02-04T21:50:47.779Z,67.13
2019-02-04T21:53:19.413Z,67.01
2019-02-04T21:55:51.063Z,67.31
2019-02-04T21:58:21.851Z,67.86
2019-02-04T22:00:52.320Z,68.12
2019-02-04T22:03:23.126Z,67.59
2019-02-04T22:05:53.608Z,67.40
2019-02-04T22:08:24.046Z,67.97
2019-02-04T22:10:54.874Z,67.16
2019-02-04T22:13:25.332Z,67.23
2019-02-04T22:15:55.836Z,67.29
2019-02-04T22:18:26.627Z,66.58
2019-02-04T22:20:57.315Z,66.33
2019-02-04T22:23:27.751Z,67.85
2019-02-04T22:25:58.938Z,67.68
2019-02-04T22:28:29.378Z,67.47
2019-02-04T22:31:00.241Z,67.92
2019-02-04T22:33:31.367Z,67.44
2019-02-04T22:36:01.807Z,67.44
2019-02-04T22:38:32.261Z,68.54
2019-02-04T22:41:03.594Z,66.39
2019-02-04T22:43:34.072Z,66.76
2019-02-04T22:46:05.084Z,66.98
2019-02-04T22:48:35.786Z,66.92
2019-02-04T22:51:06.346Z,67.58
2019-02-04T22:53:36.779Z,66.27
2019-02-04T22:56:07.276Z,66.30
2019-02-04T22:58:38.104Z,65.98
2019-02-04T23:01:22.361Z,66.74
2019-02-04T23:03:53.184Z,68.11
2019-02-04T23:06:23.711Z,67.58
2019-02-04T23:08:54.664Z,66.72
2019-02-04T23:11:25.092Z,66.79
2019-02-04T23:13:55.573Z,66.25
2019-02-04T23:16:26.014Z,66.53
2019-02-04T23:18:56.475Z,68.33
2019-02-04T23:21:26.937Z,67.98
2019-02-04T23:23:57.656Z,68.31
2019-02-04T23:26:28.153Z,68.71
2019-02-04T23:29:00.284Z,68.31
2019-02-04T23:31:30.713Z,67.80
2019-02-04T23:34:01.174Z,68.01
2019-02-04T23:36:31.981Z,67.79
2019-02-04T23:39:03.708Z,68.17
2019-02-04T23:41:34.141Z,67.86
2019-02-04T23:44:05.121Z,69.16
2019-02-04T23:46:35.576Z,69.27
2019-02-04T23:49:06.421Z,69.34
2019-02-04T23:51:37.312Z,69.49
2019-02-04T23:54:08.204Z,70.62
2019-02-04T23:56:38.634Z,70.33
2019-02-04T23:59:09.092Z,70.49
